createdAt,value
2019-04-05T00:02:23.692Z,10.20
2019-04-05T00:04:49.635Z,10.90
2019-04-05T00:07:15.473Z,10.93
2019-04-05T00:09:41.313Z,10.27
2019-04-05T00:12:07.155Z,9.20
2019-04-05T00:14:33.007Z,9.63
2019-04-05T00:16:58.816Z,10.30
2019-04-05T00:19:24.662Z,9.03
2019-04-05T00:21:50.485Z,9.10
2019-04-05T00:24:16.331Z,8.63
2019-04-05T00:26:42.158Z,10.00
2019-04-05T00:29:08.014Z,10.13
2019-04-05T00:31:33.832Z,8.97
2019-04-05T00:33:59.673Z,8.77
2019-04-05T00:36:25.541Z,8.70
2019-04-05T00:38:51.361Z,9.23
2019-04-05T00:41:17.233Z,9.10
2019-04-05T00:43:43.052Z,8.00
2019-04-05T00:46:08.897Z,8.63
2019-04-05T00:48:34.727Z,8.83
2019-04-05T00:51:00.684Z,7.77
2019-04-05T00:53:26.743Z,8.43
2019-04-05T00:55:52.694Z,8.70
2019-04-05T00:58:18.557Z,8.57
2019-04-05T01:00:44.494Z,7.77
2019-04-05T01:03:13.060Z,8.60
2019-04-05T01:05:38.089Z,8.13
2019-04-05T01:08:03.963Z,7.33
2019-04-05T01:10:29.812Z,8.20
2019-04-05T01:12:55.894Z,8.03
2019-04-05T01:15:21.746Z,6.60
2019-04-05T01:17:47.650Z,8.30
2019-04-05T01:20:13.507Z,8.20
2019-04-05T01:22:39.931Z,7.27
2019-04-05T01:25:05.985Z,7.30
2019-04-05T01:27:33.230Z,7.50
2019-04-05T01:29:59.182Z,6.60
2019-04-05T01:32:25.007Z,6.53
2019-04-05T01:34:50.873Z,6.70
2019-04-05T01:37:16.798Z,7.00
2019-04-05T01:39:42.665Z,7.73
2019-04-05T01:42:08.523Z,8.37
2019-04-05T01:44:34.371Z,7.17
2019-04-05T01:47:00.217Z,8.80
2019-04-05T01:49:26.073Z,7.33
2019-04-05T01:51:51.917Z,7.87
2019-04-05T01:54:17.769Z,6.80
2019-04-05T01:56:43.618Z,8.07
2019-04-05T01:59:09.451Z,7.80
2019-04-05T02:01:35.332Z,7.80
2019-04-05T02:04:01.184Z,8.63
2019-04-05T02:06:27.143Z,8.17
2019-04-05T02:08:54.623Z,8.57
2019-04-05T02:11:20.553Z,7.60
2019-04-05T02:13:48.345Z,7.60
2019-04-05T02:16:14.185Z,8.90
2019-04-05T02:18:40.035Z,7.70
2019-04-05T02:21:06.174Z,8.80
2019-04-05T02:23:32.038Z,8.97
2019-04-05T02:25:57.891Z,7.37
2019-04-05T02:28:25.440Z,9.17
2019-04-05T02:30:51.469Z,9.33
2019-04-05T02:33:17.425Z,9.00
2019-04-05T02:35:43.255Z,8.40
2019-04-05T02:38:09.103Z,8.30
2019-04-05T02:40:36.737Z,8.97
2019-04-05T02:43:02.979Z,9.27
2019-04-05T02:45:31.017Z,9.17
2019-04-05T02:48:00.681Z,8.13
2019-04-05T02:50:28.434Z,9.97
2019-04-05T02:52:57.277Z,8.40
2019-04-05T02:55:24.450Z,9.10
2019-04-05T02:57:50.805Z,9.07
2019-04-05T03:00:16.754Z,10.03
2019-04-05T03:02:42.998Z,9.70
2019-04-05T03:05:09.034Z,9.57
2019-04-05T03:07:34.896Z,11.50
2019-04-05T03:10:02.664Z,10.00
2019-04-05T03:12:28.698Z,9.70
2019-04-05T03:14:54.636Z,10.80
2019-04-05T03:17:20.779Z,11.27
2019-04-05T03:19:49.415Z,9.20
2019-04-05T03:22:15.378Z,21.47
2019-04-05T03:24:42.834Z,14.40
2019-04-05T03:27:12.512Z,11.90
2019-04-05T03:29:38.455Z,11.03
2019-04-05T03:32:04.528Z,11.20
2019-04-05T03:34:30.434Z,10.33
2019-04-05T03:36:56.400Z,11.60
2019-04-05T03:39:22.448Z,10.80
2019-04-05T03:41:48.285Z,12.97
2019-04-05T03:44:14.213Z,11.67
2019-04-05T03:46:55.464Z,11.70
2019-04-05T03:49:08.202Z,11.30
2019-04-05T03:51:34.164Z,11.70
2019-04-05T03:54:00.121Z,10.50
2019-04-05T03:56:26.121Z,12.20
2019-04-05T03:58:52.072Z,13.20
2019-04-05T04:01:17.999Z,11.27
2019-04-05T04:03:43.852Z,12.10
2019-04-05T04:06:09.786Z,13.37
2019-04-05T04:08:35.847Z,13.33
2019-04-05T04:11:01.796Z,12.00
2019-04-05T04:13:27.757Z,15.00
2019-04-05T04:15:53.926Z,12.73
2019-04-05T04:18:19.984Z,11.37
2019-04-05T04:20:50.099Z,13.43
2019-04-05T04:23:16.842Z,13.60
2019-04-05T04:25:43.119Z,10.70
2019-04-05T04:28:08.974Z,12.53
2019-04-05T04:30:35.606Z,14.53
2019-04-05T04:33:02.252Z,13.00
2019-04-05T04:35:28.325Z,14.43
2019-04-05T04:37:54.269Z,12.27
2019-04-05T04:40:20.228Z,12.80
2019-04-05T04:42:46.072Z,14.13
2019-04-05T04:45:12.984Z,13.20
2019-04-05T04:47:39.245Z,14.43
2019-04-05T04:50:05.903Z,13.07
2019-04-05T04:52:32.076Z,14.47
2019-04-05T04:54:58.022Z,15.03
2019-04-05T04:57:24.242Z,13.53
2019-04-05T04:59:50.275Z,13.43
2019-04-05T05:02:16.201Z,11.73
2019-04-05T05:04:42.269Z,13.93
2019-04-05T05:07:08.228Z,12.63
2019-04-05T05:09:34.174Z,13.90
2019-04-05T05:12:00.190Z,12.90
2019-04-05T05:14:26.150Z,13.30
2019-04-05T05:16:52.213Z,13.03
2019-04-05T05:19:18.293Z,14.97
2019-04-05T05:21:44.322Z,14.30
2019-04-05T05:24:10.306Z,18.17
2019-04-05T05:26:36.313Z,15.83
2019-04-05T05:29:02.270Z,14.87
2019-04-05T05:31:28.423Z,14.03
2019-04-05T05:33:54.448Z,13.90
2019-04-05T05:36:20.328Z,14.60
2019-04-05T05:38:46.261Z,13.33
2019-04-05T05:41:12.309Z,14.70
2019-04-05T05:43:38.152Z,13.93
2019-04-05T05:46:04.229Z,14.87
2019-04-05T05:48:30.965Z,16.87
2019-04-05T05:50:57.009Z,14.67
2019-04-05T05:53:22.874Z,14.70
2019-04-05T05:55:48.729Z,15.37
2019-04-05T05:58:14.564Z,16.83
2019-04-05T06:00:40.414Z,15.47
2019-04-05T06:03:06.543Z,16.47
2019-04-05T06:05:33.195Z,14.50
2019-04-05T06:08:01.006Z,16.23
2019-04-05T06:10:26.776Z,16.93
2019-04-05T06:12:52.595Z,15.37
2019-04-05T06:15:18.440Z,17.27
2019-04-05T06:17:44.289Z,16.00
2019-04-05T06:20:10.551Z,15.57
2019-04-05T06:22:36.401Z,17.30
2019-04-05T06:25:04.187Z,15.87
2019-04-05T06:27:30.046Z,14.90
2019-04-05T06:29:55.922Z,15.50
2019-04-05T06:32:21.768Z,15.97
2019-04-05T06:34:47.616Z,17.10
2019-04-05T06:37:13.472Z,27.60
2019-04-05T06:39:39.309Z,16.67
2019-04-05T06:42:05.273Z,18.20
2019-04-05T06:44:31.089Z,15.03
2019-04-05T06:46:56.961Z,14.60
2019-04-05T06:49:22.797Z,16.73
2019-04-05T06:51:48.651Z,15.20
2019-04-05T06:54:14.536Z,14.17
2019-04-05T06:56:40.413Z,15.73
2019-04-05T06:59:06.246Z,15.60
2019-04-05T07:01:32.162Z,16.60
2019-04-05T07:03:59.920Z,14.90
2019-04-05T07:06:25.776Z,15.13
2019-04-05T07:08:53.998Z,14.07
2019-04-05T07:11:19.373Z,13.87
2019-04-05T07:13:45.331Z,13.60
2019-04-05T07:16:11.335Z,13.73
2019-04-05T07:18:37.232Z,14.73
2019-04-05T07:21:03.172Z,13.47
2019-04-05T07:23:29.041Z,13.80
2019-04-05T07:25:54.884Z,14.13
2019-04-05T07:28:20.711Z,14.70
2019-04-05T07:30:46.565Z,16.67
2019-04-05T07:33:12.411Z,13.70
2019-04-05T07:35:40.735Z,14.77
2019-04-05T07:38:09.622Z,14.43
2019-04-05T07:40:35.906Z,13.30
2019-04-05T07:43:01.753Z,13.33
2019-04-05T07:45:27.591Z,13.63
2019-04-05T07:47:53.585Z,13.63
2019-04-05T07:50:19.374Z,13.63
2019-04-05T07:52:45.207Z,16.70
2019-04-05T07:55:11.151Z,12.47
2019-04-05T07:57:36.995Z,14.87
2019-04-05T08:00:07.068Z,12.30
2019-04-05T08:02:32.953Z,12.00
2019-04-05T08:04:58.801Z,14.40
2019-04-05T08:07:27.950Z,12.90
2019-04-05T08:09:54.122Z,12.73
2019-04-05T08:12:20.166Z,15.30
2019-04-05T08:14:46.133Z,13.33
2019-04-05T08:17:11.957Z,12.47
2019-04-05T08:19:37.808Z,12.67
2019-04-05T08:22:03.857Z,15.57
2019-04-05T08:24:29.710Z,13.87
2019-04-05T08:26:55.558Z,13.03
2019-04-05T08:29:21.414Z,11.97
2019-04-05T08:31:47.251Z,12.63
2019-04-05T08:34:13.141Z,14.23
2019-04-05T08:36:38.977Z,14.23
2019-04-05T08:39:06.600Z,16.10
2019-04-05T08:41:32.475Z,14.60
2019-04-05T08:43:58.343Z,14.77
2019-04-05T08:46:24.192Z,13.60
2019-04-05T08:48:52.285Z,15.17
2019-04-05T08:51:17.817Z,14.77
2019-04-05T08:53:43.638Z,15.10
2019-04-05T08:56:09.537Z,17.17
2019-04-05T08:58:35.382Z,16.40
2019-04-05T09:01:01.246Z,16.30
2019-04-05T09:03:27.081Z,14.87
2019-04-05T09:05:52.956Z,13.53
2019-04-05T09:08:21.293Z,16.10
2019-04-05T09:10:46.651Z,14.47
2019-04-05T09:13:12.499Z,14.93
2019-04-05T09:15:38.360Z,16.83
2019-04-05T09:18:04.287Z,17.17
2019-04-05T09:20:30.139Z,14.53
2019-04-05T09:22:55.971Z,15.80
2019-04-05T09:25:21.846Z,14.50
2019-04-05T09:27:47.685Z,13.63
2019-04-05T09:30:13.726Z,13.67
2019-04-05T09:32:39.602Z,15.70
2019-04-05T09:35:05.551Z,14.90
2019-04-05T09:37:31.393Z,15.13
2019-04-05T09:39:57.208Z,15.43
2019-04-05T09:42:23.078Z,16.70
2019-04-05T09:44:48.987Z,15.30
2019-04-05T09:47:14.817Z,16.30
2019-04-05T09:49:40.655Z,15.17
2019-04-05T09:52:06.616Z,15.23
2019-04-05T09:54:32.472Z,15.80
2019-04-05T09:56:58.321Z,17.43
2019-04-05T09:59:24.182Z,18.83
2019-04-05T10:01:50.030Z,17.83
2019-04-05T10:04:15.989Z,18.20
2019-04-05T10:06:42.077Z,17.40
2019-04-05T10:09:08.045Z,19.23
2019-04-05T10:11:33.894Z,20.77
2019-04-05T10:13:59.761Z,19.83
2019-04-05T10:16:25.619Z,21.23
2019-04-05T10:18:51.691Z,21.37
2019-04-05T10:21:17.541Z,17.17
2019-04-05T10:23:43.375Z,18.87
2019-04-05T10:26:09.236Z,18.53
2019-04-05T10:28:35.059Z,18.73
2019-04-05T10:31:00.909Z,16.00
2019-04-05T10:33:26.738Z,15.87
2019-04-05T10:35:52.599Z,17.30
2019-04-05T10:38:18.453Z,19.77
2019-04-05T10:40:44.309Z,18.50
2019-04-05T10:43:10.239Z,14.60
2019-04-05T10:45:36.071Z,14.03
2019-04-05T10:48:02.129Z,14.10
2019-04-05T10:50:27.952Z,14.43
2019-04-05T10:52:53.813Z,14.17
2019-04-05T10:55:19.777Z,14.60
2019-04-05T10:57:45.605Z,13.77
2019-04-05T11:00:13.955Z,13.23
2019-04-05T11:02:39.854Z,14.43
2019-04-05T11:05:05.798Z,14.60
2019-04-05T11:07:31.727Z,15.33
2019-04-05T11:09:57.589Z,13.97
2019-04-05T11:12:23.430Z,14.47
2019-04-05T11:14:49.287Z,13.37
2019-04-05T11:17:15.118Z,14.03
2019-04-05T11:19:40.996Z,14.77
2019-04-05T11:22:06.920Z,14.30
2019-04-05T11:24:32.748Z,14.83
2019-04-05T11:26:58.612Z,14.50
2019-04-05T11:29:24.463Z,14.23
2019-04-05T11:31:56.811Z,14.77
2019-04-05T11:34:18.066Z,14.23
2019-04-05T11:36:44.008Z,14.47
2019-04-05T11:39:09.832Z,13.97
2019-04-05T11:41:36.217Z,13.60
2019-04-05T11:44:02.082Z,14.37
2019-04-05T11:46:29.207Z,14.73
2019-04-05T11:48:55.154Z,13.97
2019-04-05T11:51:20.989Z,15.13
2019-04-05T11:53:46.858Z,15.90
2019-04-05T11:56:14.788Z,17.00
2019-04-05T11:58:42.350Z,17.10
2019-04-05T12:01:10.084Z,14.83
2019-04-05T12:03:36.029Z,16.60
2019-04-05T12:06:01.882Z,14.40
2019-04-05T12:08:27.747Z,15.80
2019-04-05T12:10:53.604Z,15.90
2019-04-05T12:13:19.469Z,14.60
2019-04-05T12:15:45.326Z,15.67
2019-04-05T12:18:11.163Z,15.73
2019-04-05T12:20:48.018Z,15.30
2019-04-05T12:23:04.963Z,14.13
2019-04-05T12:25:31.784Z,15.50
2019-04-05T12:28:06.239Z,15.70
2019-04-05T12:30:27.227Z,15.17
2019-04-05T12:32:53.366Z,16.40
2019-04-05T12:35:21.356Z,14.53
2019-04-05T12:37:50.383Z,17.20
2019-04-05T12:40:16.766Z,14.47
2019-04-05T12:42:43.562Z,15.27
2019-04-05T12:45:09.660Z,17.10
2019-04-05T12:47:35.515Z,15.20
2019-04-05T12:50:01.342Z,14.03
2019-04-05T12:52:28.005Z,17.67
2019-04-05T12:54:54.936Z,15.93
2019-04-05T12:57:20.859Z,17.83
2019-04-05T12:59:46.724Z,15.43
2019-04-05T13:02:14.057Z,14.80
2019-04-05T13:04:40.326Z,15.67
2019-04-05T13:07:06.665Z,16.13
2019-04-05T13:09:32.611Z,15.60
2019-04-05T13:11:58.451Z,15.73
2019-04-05T13:14:26.158Z,16.40
2019-04-05T13:16:52.089Z,14.30
2019-04-05T13:19:17.940Z,15.77
2019-04-05T13:21:43.791Z,14.93
2019-04-05T13:24:10.205Z,16.00
2019-04-05T13:26:36.961Z,16.30
2019-04-05T13:29:03.220Z,15.77
2019-04-05T13:31:29.041Z,15.60
2019-04-05T13:33:55.565Z,17.70
2019-04-05T13:36:21.570Z,17.30
2019-04-05T13:38:54.778Z,16.17
2019-04-05T13:41:15.207Z,16.40
2019-04-05T13:43:42.944Z,15.90
2019-04-05T13:46:21.004Z,16.60
2019-04-05T13:48:37.641Z,17.40
2019-04-05T13:51:07.094Z,16.90
2019-04-05T13:53:32.103Z,17.80
2019-04-05T13:55:57.983Z,16.67
2019-04-05T13:58:23.822Z,17.83
2019-04-05T14:00:49.936Z,16.87
2019-04-05T14:03:15.850Z,16.30
2019-04-05T14:05:41.817Z,16.23
2019-04-05T14:08:11.040Z,17.13
2019-04-05T14:10:35.408Z,17.00
2019-04-05T14:13:01.252Z,17.47
2019-04-05T14:15:31.280Z,17.03
2019-04-05T14:17:56.260Z,16.20
2019-04-05T14:20:24.461Z,16.70
2019-04-05T14:22:51.459Z,16.53
2019-04-05T14:25:17.707Z,17.10
2019-04-05T14:27:43.574Z,19.57
2019-04-05T14:30:09.627Z,16.27
2019-04-05T14:32:35.461Z,17.03
2019-04-05T14:35:01.412Z,16.50
2019-04-05T14:37:27.344Z,16.53
2019-04-05T14:39:53.202Z,18.90
2019-04-05T14:42:19.040Z,17.60
2019-04-05T14:44:44.914Z,18.80
2019-04-05T14:47:10.758Z,16.90
2019-04-05T14:49:36.750Z,18.00
2019-04-05T14:52:02.812Z,19.97
2019-04-05T14:54:30.096Z,18.57
2019-04-05T14:56:57.455Z,17.60
2019-04-05T14:59:23.488Z,19.93
2019-04-05T15:01:49.340Z,18.03
2019-04-05T15:04:15.206Z,18.30
2019-04-05T15:06:41.155Z,17.40
2019-04-05T15:09:07.017Z,19.30
2019-04-05T15:11:32.916Z,19.57
2019-04-05T15:13:58.763Z,20.40
2019-04-05T15:16:24.838Z,18.53
2019-04-05T15:18:50.891Z,19.73
2019-04-05T15:21:16.849Z,17.63
2019-04-05T15:23:45.431Z,19.43
2019-04-05T15:26:10.621Z,18.23
2019-04-05T15:28:38.944Z,18.67
2019-04-05T15:31:04.388Z,17.57
2019-04-05T15:33:30.295Z,18.70
2019-04-05T15:35:58.346Z,19.90
2019-04-05T15:38:24.072Z,18.20
2019-04-05T15:40:49.943Z,18.63
2019-04-05T15:43:15.907Z,19.20
2019-04-05T15:45:42.828Z,18.80
2019-04-05T15:48:08.870Z,17.07
2019-04-05T15:50:34.892Z,19.13
2019-04-05T15:53:02.302Z,19.50
2019-04-05T15:55:28.521Z,19.67
2019-04-05T15:57:54.508Z,21.20
2019-04-05T16:00:26.059Z,20.20
2019-04-05T16:02:52.103Z,19.03
2019-04-05T16:05:20.030Z,17.87
2019-04-05T16:07:46.095Z,19.87
2019-04-05T16:10:12.824Z,20.80
2019-04-05T16:12:38.892Z,19.77
2019-04-05T16:15:06.040Z,19.97
2019-04-05T16:17:31.924Z,19.50
2019-04-05T16:19:57.996Z,19.63
2019-04-05T16:22:31.302Z,19.10
2019-04-05T16:24:51.755Z,19.13
2019-04-05T16:27:17.682Z,19.73
2019-04-05T16:29:43.911Z,18.47
2019-04-05T16:32:09.825Z,18.20
2019-04-05T16:34:36.515Z,17.13
2019-04-05T16:37:02.909Z,18.43
2019-04-05T16:39:28.952Z,17.83
2019-04-05T16:42:02.998Z,17.97
2019-04-05T16:44:28.125Z,18.17
2019-04-05T16:46:54.281Z,16.90
2019-04-05T16:49:20.399Z,17.93
2019-04-05T16:51:48.438Z,17.13
2019-04-05T16:54:14.874Z,17.83
2019-04-05T16:56:41.105Z,17.20
2019-04-05T16:59:07.162Z,17.13
2019-04-05T17:01:33.014Z,15.60
2019-04-05T17:03:58.904Z,17.17
2019-04-05T17:06:24.803Z,16.07
2019-04-05T17:08:50.698Z,16.40
2019-04-05T17:11:16.899Z,17.87
2019-04-05T17:13:42.891Z,16.23
2019-04-05T17:16:08.880Z,18.23
2019-04-05T17:18:34.794Z,15.93
2019-04-05T17:21:00.712Z,15.70
2019-04-05T17:23:26.566Z,16.90
2019-04-05T17:25:52.460Z,17.27
2019-04-05T17:28:18.364Z,18.33
2019-04-05T17:30:44.234Z,19.23
2019-04-05T17:33:10.100Z,16.60
2019-04-05T17:35:36.094Z,17.33
2019-04-05T17:38:01.992Z,17.37
2019-04-05T17:40:27.890Z,18.80
2019-04-05T17:42:53.775Z,17.33
2019-04-05T17:45:19.688Z,18.43
2019-04-05T17:47:45.592Z,16.93
2019-04-05T17:50:15.279Z,18.30
2019-04-05T17:52:41.149Z,19.23
2019-04-05T17:55:07.333Z,20.57
2019-04-05T17:57:33.281Z,18.13
2019-04-05T17:59:59.222Z,20.60
2019-04-05T18:02:26.178Z,18.93
2019-04-05T18:04:52.026Z,18.70
2019-04-05T18:07:17.949Z,19.17
2019-04-05T18:09:43.779Z,16.60
2019-04-05T18:12:09.648Z,17.17
2019-04-05T18:14:35.486Z,17.93
2019-04-05T18:17:01.360Z,18.63
2019-04-05T18:19:27.271Z,16.87
2019-04-05T18:21:53.146Z,18.10
2019-04-05T18:24:18.999Z,17.70
2019-04-05T18:26:44.925Z,18.60
2019-04-05T18:29:10.763Z,19.87
2019-04-05T18:31:36.715Z,19.00
2019-04-05T18:34:02.649Z,20.37
2019-04-05T18:36:28.504Z,18.30
2019-04-05T18:38:54.343Z,20.20
2019-04-05T18:41:20.178Z,21.17
2019-04-05T18:43:46.029Z,20.90
2019-04-05T18:46:11.900Z,22.10
2019-04-05T18:48:37.734Z,24.27
2019-04-05T18:51:03.583Z,25.77
2019-04-05T18:53:37.485Z,26.43
2019-04-05T18:55:57.239Z,23.37
2019-04-05T18:58:23.073Z,21.60
2019-04-05T19:00:48.911Z,24.03
2019-04-05T19:03:14.758Z,22.33
2019-04-05T19:05:40.637Z,23.00
2019-04-05T19:08:06.860Z,22.17
2019-04-05T19:10:37.347Z,23.40
2019-04-05T19:13:00.491Z,22.23
2019-04-05T19:15:26.439Z,22.77
2019-04-05T19:17:52.268Z,21.83
2019-04-05T19:20:18.131Z,22.17
2019-04-05T19:22:44.003Z,20.67
2019-04-05T19:25:10.042Z,21.50
2019-04-05T19:27:35.916Z,19.90
2019-04-05T19:49:44.357Z,21.97
2019-04-05T19:52:10.220Z,21.27
2019-04-05T19:54:36.068Z,21.80
2019-04-05T19:57:01.949Z,20.03
2019-04-05T19:59:27.809Z,21.97
2019-04-05T20:01:53.774Z,20.47
2019-04-05T20:04:19.608Z,20.33
2019-04-05T20:06:45.476Z,21.63
2019-04-05T20:09:11.433Z,20.67
2019-04-05T20:11:37.290Z,24.00
2019-04-05T20:14:03.247Z,23.10
2019-04-05T20:16:29.097Z,22.57
2019-04-05T20:18:54.960Z,20.90
2019-04-05T20:21:20.808Z,22.70
2019-04-05T20:23:47.696Z,21.13
2019-04-05T20:26:13.734Z,22.40
2019-04-05T20:28:39.596Z,22.90
2019-04-05T20:31:05.445Z,19.50
2019-04-05T20:33:31.317Z,18.43
2019-04-05T20:35:57.195Z,17.37
2019-04-05T20:38:23.069Z,18.23
2019-04-05T20:40:48.913Z,18.60
2019-04-05T20:43:14.773Z,18.70
2019-04-05T20:45:40.660Z,18.90
2019-04-05T20:48:06.477Z,18.90
2019-04-05T20:50:32.325Z,17.80
2019-04-05T20:52:58.443Z,17.47
2019-04-05T20:55:24.329Z,17.53
2019-04-05T20:57:50.219Z,18.40
2019-04-05T21:00:16.769Z,15.73
2019-04-05T21:02:42.636Z,18.70
2019-04-05T21:05:08.604Z,17.60
2019-04-05T21:07:34.456Z,17.13
2019-04-05T21:10:00.343Z,16.00
2019-04-05T21:12:26.176Z,13.83
2019-04-05T21:14:52.026Z,14.93
2019-04-05T21:17:17.893Z,15.50
2019-04-05T21:19:43.741Z,14.87
2019-04-05T21:22:09.618Z,15.10
2019-04-05T21:24:36.482Z,14.70
2019-04-05T21:27:02.455Z,16.10
2019-04-05T21:29:28.301Z,15.50
2019-04-05T21:31:54.153Z,16.10
2019-04-05T21:34:19.976Z,16.30
2019-04-05T21:36:45.884Z,17.53
2019-04-05T21:39:11.713Z,16.63
2019-04-05T21:41:37.579Z,16.30
2019-04-05T21:44:03.426Z,17.63
2019-04-05T21:46:29.276Z,13.27
2019-04-05T21:48:55.133Z,18.43
2019-04-05T21:51:21.005Z,19.63
2019-04-05T21:53:47.718Z,18.23
2019-04-05T21:56:13.590Z,20.07
2019-04-05T21:58:39.455Z,17.97
2019-04-05T22:01:09.012Z,21.23
2019-04-05T22:03:35.069Z,17.50
2019-04-05T22:06:00.905Z,14.60
2019-04-05T22:08:26.776Z,17.10
2019-04-05T22:10:52.605Z,15.43
2019-04-05T22:13:18.448Z,15.40
2019-04-05T22:15:44.399Z,15.67
2019-04-05T22:18:10.258Z,15.20
2019-04-05T22:20:36.084Z,14.90
2019-04-05T22:23:01.936Z,15.17
2019-04-05T22:25:27.804Z,14.10
2019-04-05T22:27:53.651Z,14.93
2019-04-05T22:30:19.507Z,15.33
2019-04-05T22:32:45.355Z,16.03
2019-04-05T22:35:11.293Z,15.57
2019-04-05T22:37:37.139Z,16.73
2019-04-05T22:40:06.414Z,16.13
2019-04-05T22:42:32.261Z,18.27
2019-04-05T22:44:58.108Z,15.70
2019-04-05T22:47:23.933Z,17.50
2019-04-05T22:49:49.776Z,17.57
2019-04-05T22:52:15.640Z,17.33
2019-04-05T22:54:41.479Z,17.50
2019-04-05T22:57:07.364Z,16.23
2019-04-05T22:59:33.210Z,15.23
2019-04-05T23:01:59.036Z,14.83
2019-04-05T23:04:24.904Z,17.07
2019-04-05T23:06:50.725Z,17.20
2019-04-05T23:09:16.574Z,18.67
2019-04-05T23:11:42.429Z,25.07
2019-04-05T23:14:08.252Z,21.83
2019-04-05T23:16:34.092Z,20.87
2019-04-05T23:18:59.929Z,14.83
2019-04-05T23:21:25.770Z,16.60
2019-04-05T23:23:51.641Z,17.20
2019-04-05T23:26:17.489Z,17.80
2019-04-05T23:28:43.328Z,16.93
2019-04-05T23:31:09.155Z,18.40
2019-04-05T23:33:35.005Z,18.80
2019-04-05T23:36:00.956Z,17.37
2019-04-05T23:38:26.811Z,16.13
2019-04-05T23:40:52.630Z,15.83
2019-04-05T23:43:18.480Z,17.00
2019-04-05T23:45:44.338Z,16.00
2019-04-05T23:48:10.380Z,16.93
2019-04-05T23:50:36.248Z,16.83
2019-04-05T23:53:02.086Z,17.00
2019-04-05T23:55:33.079Z,15.30
2019-04-05T23:57:55.686Z,16.40
